createdAt,value
2018-12-27T00:08:43.335Z,9.37
2018-12-27T00:11:13.147Z,9.80
2018-12-27T00:19:38.113Z,10.43
2018-12-27T00:22:07.960Z,12.23
2018-12-27T00:24:37.819Z,11.73
2018-12-27T00:27:07.653Z,12.50
2018-12-27T00:29:37.657Z,10.83
2018-12-27T00:37:43.652Z,12.10
2018-12-27T00:40:13.264Z,12.13
2018-12-27T00:43:19.278Z,11.63
2018-12-27T00:48:38.034Z,10.47
2018-12-27T00:58:16.985Z,12.10
2018-12-27T01:04:47.955Z,13.23
2018-12-27T01:07:17.566Z,13.77
2018-12-27T01:12:59.191Z,16.57
2018-12-27T01:15:28.850Z,12.70
2018-12-27T01:17:58.962Z,11.87
2018-12-27T01:20:29.166Z,13.23
2018-12-27T01:29:38.580Z,14.13
2018-12-27T01:32:08.165Z,14.03
2018-12-27T01:34:38.064Z,14.17
2018-12-27T01:37:08.385Z,13.47
2018-12-27T01:39:37.995Z,12.40
2018-12-27T01:52:14.772Z,14.43
2018-12-27T01:54:44.712Z,11.80
2018-12-27T01:57:14.456Z,12.63
2018-12-27T01:59:44.630Z,14.70
2018-12-27T02:02:14.509Z,14.57
2018-12-27T02:04:44.336Z,13.80
2018-12-27T02:10:08.398Z,11.33
2018-12-27T02:12:38.130Z,12.43
2018-12-27T02:15:08.059Z,12.60
2018-12-27T02:17:37.866Z,11.17
2018-12-27T02:23:20.933Z,11.43
2018-12-27T02:29:01.924Z,10.97
2018-12-27T02:31:31.742Z,12.57
2018-12-27T02:37:13.440Z,11.93
2018-12-27T02:39:43.382Z,12.77
2018-12-27T02:42:12.971Z,12.13
2018-12-27T02:44:43.240Z,13.70
2018-12-27T02:47:13.207Z,13.13
2018-12-27T02:49:43.323Z,12.40
2018-12-27T02:52:13.349Z,13.47
2018-12-27T02:58:10.389Z,12.83
2018-12-27T03:20:01.090Z,19.90
2018-12-27T03:22:31.031Z,16.07
2018-12-27T03:25:00.735Z,17.20
2018-12-27T03:27:30.872Z,16.73
2018-12-27T03:36:52.331Z,19.20
2018-12-27T03:42:34.153Z,18.30
2018-12-27T03:47:39.846Z,19.67
2018-12-27T03:50:09.562Z,20.43
2018-12-27T03:52:59.944Z,17.60
2018-12-27T03:55:29.619Z,18.57
2018-12-27T03:57:59.310Z,19.87
2018-12-27T04:07:13.351Z,18.27
2018-12-27T04:12:25.649Z,20.00
2018-12-27T04:14:55.438Z,19.23
2018-12-27T04:17:24.992Z,19.10
2018-12-27T04:19:54.768Z,20.53
2018-12-27T04:22:24.698Z,20.17
2018-12-27T04:28:08.463Z,16.80
2018-12-27T04:37:39.242Z,17.23
2018-12-27T04:43:03.278Z,21.17
2018-12-27T04:45:53.158Z,18.03
2018-12-27T04:48:23.865Z,17.87
2018-12-27T04:50:53.758Z,17.73
2018-12-27T04:53:23.670Z,15.90
2018-12-27T04:55:54.275Z,17.93
2018-12-27T04:58:24.014Z,17.83
2018-12-27T05:00:53.540Z,19.77
2018-12-27T05:03:23.355Z,18.30
2018-12-27T05:05:53.450Z,15.90
2018-12-27T05:08:22.995Z,17.53
2018-12-27T05:10:53.473Z,17.13
2018-12-27T05:13:23.342Z,15.50
2018-12-27T05:15:52.875Z,16.13
2018-12-27T05:22:04.404Z,14.87
2018-12-27T05:24:34.065Z,14.37
2018-12-27T05:29:39.691Z,16.57
2018-12-27T05:32:31.852Z,15.07
2018-12-27T05:35:01.731Z,13.70
2018-12-27T05:37:31.320Z,17.13
2018-12-27T05:40:00.850Z,13.77
2018-12-27T05:42:51.133Z,14.77
2018-12-27T05:45:59.973Z,14.60
2018-12-27T05:51:27.948Z,13.17
2018-12-27T06:00:49.512Z,9.47
2018-12-27T06:03:19.194Z,12.07
2018-12-27T06:19:00.801Z,15.50
2018-12-27T06:21:30.376Z,13.20
2018-12-27T06:24:00.118Z,11.20
2018-12-27T06:26:29.923Z,12.63
2018-12-27T06:28:59.395Z,12.17
2018-12-27T06:31:49.525Z,11.53
2018-12-27T06:37:12.489Z,10.37
2018-12-27T06:40:19.881Z,11.77
2018-12-27T06:42:49.894Z,13.07
2018-12-27T07:09:28.877Z,8.73
2018-12-27T07:11:58.495Z,10.17
2018-12-27T07:14:48.643Z,9.90
2018-12-27T07:21:02.237Z,10.17
2018-12-27T07:23:32.064Z,11.77
2018-12-27T07:26:22.145Z,13.43
2018-12-27T07:32:06.179Z,13.90
2018-12-27T07:34:35.635Z,13.10
2018-12-27T07:47:12.893Z,11.53
2018-12-27T07:49:42.536Z,13.00
2018-12-27T07:55:27.035Z,11.93
2018-12-27T08:00:58.543Z,15.43
2018-12-27T08:03:28.295Z,15.80
2018-12-27T08:05:57.803Z,14.93
2018-12-27T08:11:39.137Z,13.67
2018-12-27T08:17:23.994Z,10.93
2018-12-27T08:19:53.800Z,10.43
2018-12-27T08:22:23.553Z,11.43
2018-12-27T08:25:12.287Z,11.67
2018-12-27T08:28:02.255Z,12.00
2018-12-27T08:30:32.301Z,9.67
2018-12-27T08:39:16.675Z,10.80
2018-12-27T08:41:46.232Z,9.50
2018-12-27T08:53:30.357Z,9.77
2018-12-27T08:56:37.759Z,10.00
2018-12-27T09:02:29.643Z,10.13
2018-12-27T09:11:27.283Z,10.63
2018-12-27T09:13:56.926Z,10.67
2018-12-27T09:16:26.418Z,14.27
2018-12-27T09:24:40.817Z,13.63
2018-12-27T09:27:10.837Z,11.27
2018-12-27T10:14:07.186Z,7.73
2018-12-27T10:19:30.459Z,7.40
2018-12-27T10:24:53.248Z,7.17
2018-12-27T10:38:32.277Z,6.90
2018-12-27T10:41:02.543Z,6.77
2018-12-27T10:43:31.999Z,6.63
2018-12-27T10:52:56.438Z,6.47
2018-12-27T10:55:25.958Z,6.40
2018-12-27T11:12:07.138Z,5.43
2018-12-27T11:14:36.850Z,5.30
2018-12-27T11:17:06.271Z,5.47
2018-12-27T11:26:15.315Z,4.57
2018-12-27T11:29:04.175Z,4.70
2018-12-27T11:38:24.848Z,4.93
2018-12-27T11:47:11.028Z,4.87
2018-12-27T12:06:55.428Z,4.00
2018-12-27T12:16:04.620Z,3.77
2018-12-27T12:38:32.840Z,4.40
2018-12-27T12:47:04.630Z,4.03
2018-12-27T12:49:34.404Z,4.13
2018-12-27T12:59:05.220Z,3.37
2018-12-27T13:21:52.368Z,3.00
2018-12-27T13:24:21.872Z,2.93
2018-12-27T13:27:10.655Z,2.87
2018-12-27T13:29:40.121Z,2.57
2018-12-27T13:51:26.509Z,3.17
2018-12-27T13:53:55.981Z,3.23
2018-12-27T13:56:25.498Z,3.23
2018-12-27T13:58:55.593Z,3.70
2018-12-27T14:04:48.550Z,4.37
2018-12-27T14:07:18.044Z,3.90
2018-12-27T14:09:47.815Z,3.43
2018-12-27T14:33:43.901Z,3.43
2018-12-27T14:36:13.384Z,3.80
2018-12-27T14:38:42.932Z,3.40
2018-12-27T14:41:12.859Z,3.67
2018-12-27T14:43:42.416Z,3.20
2018-12-27T14:56:20.239Z,3.10
2018-12-27T15:01:25.407Z,3.23
2018-12-27T15:07:04.834Z,3.50
2018-12-27T15:09:34.282Z,2.93
2018-12-27T15:12:04.159Z,3.20
2018-12-27T15:14:33.900Z,3.30
2018-12-27T15:19:57.049Z,3.30
2018-12-27T15:27:44.807Z,3.33
2018-12-27T15:30:14.611Z,3.10
2018-12-27T15:32:44.217Z,3.10
2018-12-27T15:35:14.261Z,3.57
2018-12-27T15:40:53.308Z,2.93
2018-12-27T15:59:56.390Z,3.00
2018-12-27T16:09:34.974Z,2.50
2018-12-27T16:12:04.674Z,2.53
2018-12-27T16:21:07.786Z,2.83
2018-12-27T16:23:37.402Z,3.17
2018-12-27T16:54:28.449Z,4.23
2018-12-27T17:03:50.633Z,3.77
2018-12-27T17:06:20.312Z,3.60
2018-12-27T17:18:51.614Z,4.03
2018-12-27T18:03:00.301Z,3.17
2018-12-27T18:24:15.715Z,3.47
2018-12-27T18:46:40.010Z,3.30
2018-12-27T19:05:24.289Z,3.03
2018-12-27T19:27:39.006Z,2.80
2018-12-27T19:42:50.881Z,4.00
2018-12-27T19:55:45.285Z,4.17
2018-12-27T20:18:50.601Z,5.33
2018-12-27T20:57:30.554Z,4.67
2018-12-27T21:00:00.279Z,4.60
2018-12-27T21:02:29.863Z,5.07
2018-12-27T21:09:10.509Z,4.60
2018-12-27T21:11:40.228Z,4.10
2018-12-27T21:14:09.973Z,4.57
2018-12-27T21:16:40.390Z,3.70
2018-12-27T21:19:10.275Z,4.40
2018-12-27T21:21:40.062Z,4.53
2018-12-27T21:24:10.041Z,4.50
2018-12-27T21:26:39.942Z,4.30
2018-12-27T21:29:10.645Z,4.37
2018-12-27T21:31:40.711Z,4.63
2018-12-27T21:34:10.179Z,4.50
2018-12-27T21:36:39.770Z,12.73
2018-12-27T21:39:09.872Z,20.30
2018-12-27T21:41:39.515Z,10.27
2018-12-27T21:44:09.291Z,4.50
2018-12-27T21:46:39.617Z,4.70
2018-12-27T21:49:09.505Z,3.53
2018-12-27T21:51:39.162Z,4.30
2018-12-27T21:54:08.905Z,4.43
2018-12-27T21:56:38.699Z,4.30
2018-12-27T21:59:08.634Z,4.33
2018-12-27T22:01:38.456Z,4.40
2018-12-27T22:04:08.515Z,4.07
2018-12-27T22:06:38.264Z,4.03
2018-12-27T22:09:08.619Z,5.57
2018-12-27T22:11:38.573Z,3.50
2018-12-27T22:14:08.132Z,4.23
2018-12-27T22:16:37.990Z,3.57
2018-12-27T22:19:07.934Z,4.07
2018-12-27T22:21:37.819Z,4.43
2018-12-27T22:24:07.833Z,3.63
2018-12-27T22:26:37.717Z,3.83
2018-12-27T22:29:07.463Z,3.57
2018-12-27T22:31:37.300Z,4.13
2018-12-27T22:34:07.265Z,4.43
2018-12-27T22:36:37.234Z,3.80
2018-12-27T22:39:08.817Z,3.67
2018-12-27T22:41:38.420Z,3.60
2018-12-27T22:44:08.463Z,4.33
2018-12-27T22:46:38.375Z,3.63
2018-12-27T22:49:08.431Z,5.77
2018-12-27T22:51:38.293Z,3.97
2018-12-27T22:54:08.235Z,3.40
2018-12-27T22:56:38.093Z,3.43
2018-12-27T22:59:07.867Z,3.73
2018-12-27T23:01:37.951Z,4.57
2018-12-27T23:04:08.051Z,3.37
2018-12-27T23:06:38.337Z,3.40
2018-12-27T23:09:08.425Z,3.13
2018-12-27T23:11:38.110Z,3.50
2018-12-27T23:14:07.903Z,3.17
2018-12-27T23:16:37.765Z,3.23
2018-12-27T23:19:07.461Z,3.40
2018-12-27T23:21:37.378Z,3.47
2018-12-27T23:24:07.141Z,3.17
2018-12-27T23:26:36.967Z,3.37
2018-12-27T23:29:06.562Z,3.57
2018-12-27T23:31:36.069Z,3.57
2018-12-27T23:34:06.002Z,4.07
2018-12-27T23:36:35.992Z,3.30
2018-12-27T23:39:07.520Z,3.17
2018-12-27T23:41:37.616Z,3.00
2018-12-27T23:44:07.756Z,3.37
2018-12-27T23:46:37.974Z,3.63
2018-12-27T23:49:11.142Z,3.30
2018-12-27T23:51:41.658Z,3.20
2018-12-27T23:54:11.375Z,2.87
2018-12-27T23:56:41.344Z,2.77
2018-12-27T23:59:11.320Z,3.33
